West Union, West Virginia
Current Conditions -  °F | °C
As of 3:53 PM on Sunday 23 Nov 2014 (Local Time) from KCKB Reporting Station
Clear Clear  
Wind Chill: 62°   Ceiling: Unl
Heat Index: 62°   Visibility: 10mi
Dew Point: 41°   Wind: 9mph
Humidity: 46%   Direction: 140°SE
Pressure: 29.86"   Gusts: 18mph
Location:  39.3°N, 80.78°W
Report Text: KCKB 232053Z 14008G16KT 10SM CLR 17/05 A2986 RMK AO2 SLP108 T01670050 56034
Loading
Personal Weather Stations






























Interactive Weather Map New forecast layout! Learn more

10-Day Weather Forecast

Advertisements
Track Severe Weather on mobile